createdAt,value
2022-11-28T00:01:05.249Z,97769.69
2022-11-28T00:03:31.929Z,97767.66
2022-11-28T00:06:07.318Z,97769.69
2022-11-28T00:08:34.654Z,97775.25
2022-11-28T00:11:08.436Z,97766.91
2022-11-28T00:13:36.236Z,97777.25
2022-11-28T00:16:04.811Z,97762.94
2022-11-28T00:18:32.153Z,97774.84
2022-11-28T00:21:07.857Z,97776.81
2022-11-28T00:23:35.049Z,97778.03
2022-11-28T00:26:10.410Z,97772.47
2022-11-28T00:28:37.564Z,97766.09
2022-11-28T00:31:04.833Z,97770.91
2022-11-28T00:33:32.982Z,97761.38
2022-11-28T00:36:04.501Z,97765.34
2022-11-28T00:38:32.110Z,97766.56
2022-11-28T00:41:03.693Z,97763.78
2022-11-28T00:43:30.285Z,97768.13
2022-11-28T00:45:57.037Z,97765.34
2022-11-28T00:48:24.732Z,97759.78
2022-11-28T00:50:52.256Z,97767.69
2022-11-28T00:53:19.075Z,97755.75
2022-11-28T00:55:45.824Z,97764.13
2022-11-28T00:58:12.372Z,97757.41
2022-11-28T01:00:39.322Z,97766.16
2022-11-28T01:03:05.996Z,97765.47
2022-11-28T01:05:32.521Z,97764.28
2022-11-28T01:07:59.139Z,97755.97
2022-11-28T01:10:27.097Z,97764.78
2022-11-28T01:12:53.851Z,97760.41
2022-11-28T01:15:20.425Z,97754.06
2022-11-28T01:17:46.928Z,97747.75
2022-11-28T01:20:13.810Z,97755.28
2022-11-28T01:22:40.362Z,97743.41
2022-11-28T01:25:07.329Z,97760.84
2022-11-28T01:27:34.036Z,97750.53
2022-11-28T01:30:00.576Z,97745.34
2022-11-28T01:32:27.326Z,97750.03
2022-11-28T01:34:53.822Z,97747.66
2022-11-28T01:37:20.388Z,97748.84
2022-11-28T01:39:46.987Z,97743.31
2022-11-28T01:42:20.438Z,97737.75
2022-11-28T01:44:49.971Z,97736.91
2022-11-28T01:47:21.798Z,97742.94
2022-11-28T01:49:50.424Z,97737.75
2022-11-28T01:52:19.682Z,97736.53
2022-11-28T01:54:53.442Z,97740.03
2022-11-28T01:57:24.005Z,97736.38
2022-11-28T02:00:07.845Z,97738.41
2022-11-28T02:02:41.622Z,97738.00
2022-11-28T02:05:08.901Z,97740.03
2022-11-28T02:07:37.208Z,97732.19
2022-11-28T02:10:07.645Z,97728.19
2022-11-28T02:12:43.473Z,97736.13
2022-11-28T02:15:18.856Z,97720.59
2022-11-28T02:17:52.318Z,97729.72
2022-11-28T02:20:49.128Z,97726.13
2022-11-28T02:23:23.357Z,97723.72
2022-11-28T02:25:58.811Z,97721.72
2022-11-28T02:28:43.888Z,97711.78
2022-11-28T02:31:25.588Z,97719.34
2022-11-28T02:33:59.815Z,97720.13
2022-11-28T02:36:26.314Z,97720.53
2022-11-28T02:38:59.072Z,97723.34
2022-11-28T02:41:31.757Z,97721.91
2022-11-28T02:44:04.604Z,97721.91
2022-11-28T02:46:56.485Z,97718.31
2022-11-28T02:49:29.614Z,97725.16
2022-11-28T02:52:00.737Z,97716.91
2022-11-28T02:54:27.796Z,97725.25
2022-11-28T02:56:55.317Z,97712.53
2022-11-28T02:59:37.034Z,97719.66
2022-11-28T03:02:12.461Z,97717.25
2022-11-28T03:04:47.970Z,97716.03
2022-11-28T03:07:17.229Z,97713.25
2022-11-28T03:09:43.828Z,97714.06
2022-11-28T03:12:24.947Z,97718.06
2022-11-28T03:14:58.596Z,97717.28
2022-11-28T03:17:31.070Z,97710.91
2022-11-28T03:20:12.927Z,97718.06
2022-11-28T03:23:01.791Z,97714.06
2022-11-28T03:25:37.075Z,97704.53
2022-11-28T03:28:15.464Z,97710.09
2022-11-28T03:31:07.019Z,97710.81
2022-11-28T03:33:38.047Z,97711.63
2022-11-28T03:36:15.104Z,97701.72
2022-11-28T03:38:48.965Z,97700.53
2022-11-28T03:41:21.647Z,97697.31
2022-11-28T03:43:54.102Z,97705.28
2022-11-28T03:46:23.647Z,97697.53
2022-11-28T03:48:55.471Z,97699.13
2022-11-28T03:51:30.336Z,97691.16
2022-11-28T03:54:20.054Z,97675.28
2022-11-28T03:56:56.752Z,97686.69
2022-11-28T03:59:33.487Z,97692.69
2022-11-28T04:02:28.409Z,97689.47
2022-11-28T04:05:13.313Z,97690.63
2022-11-28T04:07:58.728Z,97684.28
2022-11-28T04:10:36.359Z,97690.25
2022-11-28T04:13:29.685Z,97690.78
2022-11-28T04:16:03.146Z,97696.66
2022-11-28T04:18:31.898Z,97688.41
2022-11-28T04:21:11.944Z,97698.34
2022-11-28T04:23:42.570Z,97702.66
2022-11-28T04:26:17.826Z,97695.03
2022-11-28T04:28:47.209Z,97692.59
2022-11-28T04:31:17.958Z,97698.94
2022-11-28T04:33:50.719Z,97689.78
2022-11-28T04:36:20.462Z,97701.28
2022-11-28T04:38:56.156Z,97704.03
2022-11-28T04:41:33.511Z,97700.81
2022-11-28T04:44:13.469Z,97703.97
2022-11-28T04:46:44.559Z,97705.56
2022-11-28T04:49:12.031Z,97703.19
2022-11-28T04:52:13.169Z,97701.28
2022-11-28T04:54:52.870Z,97697.41
2022-11-28T04:57:26.559Z,97695.84
2022-11-28T04:59:54.525Z,97692.34
2022-11-28T05:02:22.597Z,97702.28
2022-11-28T05:04:49.162Z,97694.31
2022-11-28T05:07:15.683Z,97692.72
2022-11-28T05:09:42.238Z,97693.13
2022-11-28T05:12:08.802Z,97690.38
2022-11-28T05:14:35.405Z,97695.97
2022-11-28T05:17:01.913Z,97698.34
2022-11-28T05:19:28.393Z,97697.09
2022-11-28T05:21:54.897Z,97701.03
2022-11-28T05:24:22.497Z,97690.78
2022-11-28T05:26:49.385Z,97690.31
2022-11-28T05:29:15.914Z,97701.44
2022-11-28T05:31:42.558Z,97692.72
2022-11-28T05:34:09.195Z,97697.84
2022-11-28T05:36:35.729Z,97692.72
2022-11-28T05:39:02.300Z,97690.31
2022-11-28T05:41:31.393Z,97692.69
2022-11-28T05:43:59.733Z,97693.06
2022-11-28T05:46:27.525Z,97692.25
2022-11-28T05:48:54.310Z,97691.03
2022-11-28T05:51:20.929Z,97689.47
2022-11-28T05:53:47.496Z,97695.81
2022-11-28T05:56:17.830Z,97693.81
2022-11-28T05:58:44.827Z,97691.03
2022-11-28T06:01:26.082Z,97696.59
2022-11-28T06:03:58.202Z,97693.41
2022-11-28T06:06:26.136Z,97697.44
2022-11-28T06:08:52.909Z,97689.47
2022-11-28T06:11:21.109Z,97696.63
2022-11-28T06:13:49.145Z,97694.69
2022-11-28T06:16:21.591Z,97671.31
2022-11-28T06:18:48.753Z,97695.81
2022-11-28T06:21:16.172Z,97691.03
2022-11-28T06:23:42.993Z,97691.81
2022-11-28T06:26:13.234Z,97692.56
2022-11-28T06:28:40.757Z,97686.63
2022-11-28T06:31:19.329Z,97690.16
2022-11-28T06:33:46.113Z,97690.13
2022-11-28T06:36:14.210Z,97686.97
2022-11-28T06:38:40.929Z,97689.34
2022-11-28T06:41:10.744Z,97690.13
2022-11-28T06:43:37.996Z,97682.16
2022-11-28T06:46:04.863Z,97682.88
2022-11-28T06:48:32.280Z,97686.03
2022-11-28T06:51:02.994Z,97679.66
2022-11-28T06:53:31.597Z,97684.38
2022-11-28T06:55:58.650Z,97687.53
2022-11-28T06:58:25.383Z,97682.81
2022-11-28T07:00:51.999Z,97678.88
2022-11-28T07:03:18.551Z,97690.75
2022-11-28T07:05:45.103Z,97684.00
2022-11-28T07:08:11.700Z,97685.94
2022-11-28T07:10:38.545Z,97674.75
2022-11-28T07:13:05.691Z,97673.94
2022-11-28T07:15:32.327Z,97685.00
2022-11-28T07:17:58.886Z,97673.47
2022-11-28T07:20:25.365Z,97677.81
2022-11-28T07:22:51.900Z,97681.28
2022-11-28T07:25:18.616Z,97674.03
2022-11-28T07:27:45.233Z,97673.53
2022-11-28T07:30:11.943Z,97671.50
2022-11-28T07:32:41.524Z,97656.34
2022-11-28T07:35:09.026Z,97676.09
2022-11-28T07:37:36.239Z,97665.69
2022-11-28T07:40:04.116Z,97670.22
2022-11-28T07:42:30.711Z,97672.56
2022-11-28T07:44:57.361Z,97668.09
2022-11-28T07:47:23.952Z,97660.56
2022-11-28T07:49:50.608Z,97663.72
2022-11-28T07:52:17.162Z,97664.47
2022-11-28T07:54:43.716Z,97662.91
2022-11-28T07:57:13.012Z,97659.25
2022-11-28T07:59:40.239Z,97656.22
2022-11-28T08:02:07.521Z,97671.56
2022-11-28T08:04:34.679Z,97661.53
2022-11-28T08:07:01.303Z,97661.88
2022-11-28T08:09:28.200Z,97656.25
2022-11-28T08:11:54.750Z,97653.78
2022-11-28T08:14:21.335Z,97656.53
2022-11-28T08:16:49.496Z,97646.59
2022-11-28T08:19:16.388Z,97641.88
2022-11-28T08:21:43.299Z,97639.38
2022-11-28T08:24:11.204Z,97649.28
2022-11-28T08:26:38.186Z,97640.06
2022-11-28T08:29:04.787Z,97645.50
2022-11-28T08:31:34.983Z,97638.88
2022-11-28T08:34:05.173Z,97628.50
2022-11-28T08:36:32.455Z,97628.44
2022-11-28T08:39:22.300Z,97628.41
2022-11-28T08:41:49.888Z,97636.72
2022-11-28T08:44:16.524Z,97631.50
2022-11-28T08:46:43.096Z,97620.84
2022-11-28T08:49:09.666Z,97612.28
2022-11-28T08:51:37.072Z,97609.31
2022-11-28T08:54:03.558Z,97609.13
2022-11-28T08:56:30.105Z,97611.31
2022-11-28T08:58:56.636Z,97616.09
2022-11-28T09:01:25.714Z,97605.78
2022-11-28T09:03:54.087Z,97602.03
2022-11-28T09:06:22.016Z,97604.91
2022-11-28T09:08:49.806Z,97599.94
2022-11-28T09:11:18.985Z,97594.72
2022-11-28T09:13:46.004Z,97599.69
2022-11-28T09:16:13.422Z,97582.72
2022-11-28T09:18:39.972Z,97589.03
2022-11-28T09:21:09.495Z,97594.25
2022-11-28T09:23:37.491Z,97581.16
2022-11-28T09:26:33.474Z,97586.06
2022-11-28T09:29:00.328Z,97571.34
2022-11-28T09:31:27.196Z,97576.28
2022-11-28T09:33:54.124Z,97581.81
2022-11-28T09:36:23.295Z,97578.09
2022-11-28T09:38:50.050Z,97576.19
2022-11-28T09:41:28.460Z,97568.97
2022-11-28T09:44:18.238Z,97541.88
2022-11-28T09:46:47.633Z,97560.78
2022-11-28T09:49:40.352Z,97550.47
2022-11-28T09:52:26.807Z,97551.59
2022-11-28T09:55:03.787Z,97557.00
2022-11-28T09:57:45.448Z,97557.13
2022-11-28T10:00:20.321Z,97553.63
2022-11-28T10:03:19.183Z,97544.31
2022-11-28T10:05:56.152Z,97547.63
2022-11-28T10:08:28.454Z,97535.00
2022-11-28T10:11:01.976Z,97534.78
2022-11-28T10:14:07.711Z,97517.41
2022-11-28T10:16:46.862Z,97517.28
2022-11-28T10:19:38.617Z,97502.44
2022-11-28T10:22:11.627Z,97501.28
2022-11-28T10:24:43.689Z,97500.19
2022-11-28T10:27:13.752Z,97491.34
2022-11-28T10:30:08.616Z,97499.75
2022-11-28T10:32:40.711Z,97505.34
2022-11-28T10:35:28.110Z,97495.72
2022-11-28T10:37:55.349Z,97489.44
2022-11-28T10:40:36.352Z,97487.19
2022-11-28T10:43:11.103Z,97484.28
2022-11-28T10:46:03.789Z,97482.50
2022-11-28T10:48:40.594Z,97486.22
2022-11-28T10:51:07.492Z,97489.81
2022-11-28T10:53:59.262Z,97486.44
2022-11-28T10:56:42.342Z,97494.41
2022-11-28T10:59:17.781Z,97495.28
2022-11-28T11:01:49.814Z,97490.19
2022-11-28T11:04:22.670Z,97484.25
2022-11-28T11:07:16.280Z,97489.69
2022-11-28T11:09:46.211Z,97481.56
2022-11-28T11:12:24.409Z,97479.81
2022-11-28T11:14:50.912Z,97468.44
2022-11-28T11:17:29.013Z,97462.84
2022-11-28T11:20:00.136Z,97461.66
2022-11-28T11:22:31.611Z,97466.00
2022-11-28T11:25:14.620Z,97459.19
2022-11-28T11:27:50.766Z,97455.94
2022-11-28T11:30:43.452Z,97457.00
2022-11-28T11:33:17.080Z,97455.44
2022-11-28T11:35:48.001Z,97450.09
2022-11-28T11:38:20.544Z,97452.34
2022-11-28T11:40:48.887Z,97451.34
2022-11-28T11:43:33.170Z,97445.66
2022-11-28T11:46:11.361Z,97444.16
2022-11-28T11:48:42.132Z,97449.94
2022-11-28T11:51:32.728Z,97446.44
2022-11-28T11:54:16.658Z,97454.47
2022-11-28T11:56:46.688Z,97443.44
2022-11-28T11:59:33.920Z,97445.22
2022-11-28T12:02:19.615Z,97438.03
2022-11-28T12:04:55.150Z,97437.31
2022-11-28T12:07:29.740Z,97437.69
2022-11-28T12:10:00.590Z,97440.41
2022-11-28T12:12:33.577Z,97439.19
2022-11-28T12:15:00.144Z,97446.03
2022-11-28T12:17:48.309Z,97438.84
2022-11-28T12:20:37.367Z,97427.19
2022-11-28T12:23:34.891Z,97427.66
2022-11-28T12:26:19.433Z,97426.53
2022-11-28T12:28:51.754Z,97425.38
2022-11-28T12:31:36.221Z,97424.31
2022-11-28T12:34:23.009Z,97430.59
2022-11-28T12:37:41.960Z,97429.91
2022-11-28T12:40:15.740Z,97427.09
2022-11-28T12:43:27.446Z,97430.25
2022-11-28T12:46:23.179Z,97436.25
2022-11-28T12:48:58.654Z,97434.38
2022-11-28T12:51:37.058Z,97424.97
2022-11-28T12:54:21.681Z,97437.63
2022-11-28T12:57:03.451Z,97439.53
2022-11-28T12:59:40.235Z,97435.19
2022-11-28T13:02:44.037Z,97441.28
2022-11-28T13:05:48.731Z,97456.31
2022-11-28T13:08:36.818Z,97456.06
2022-11-28T13:11:22.310Z,97450.72
2022-11-28T13:13:52.721Z,97458.03
2022-11-28T13:16:27.168Z,97461.00
2022-11-28T13:19:11.639Z,97464.09
2022-11-28T13:22:07.057Z,97468.53
2022-11-28T13:24:51.818Z,97482.81
2022-11-28T13:27:36.464Z,97477.50
2022-11-28T13:30:14.841Z,97482.84
2022-11-28T13:32:47.335Z,97484.75
2022-11-28T13:35:16.523Z,97479.50
2022-11-28T13:41:00.565Z,97482.63
2022-11-28T13:43:57.983Z,97479.25
2022-11-28T13:46:25.077Z,97471.66
2022-11-28T13:49:13.892Z,97466.22
2022-11-28T13:51:41.878Z,97467.16
2022-11-28T13:54:18.029Z,97470.03
2022-11-28T13:56:46.292Z,97468.09
2022-11-28T13:59:21.530Z,97465.31
2022-11-28T14:01:56.083Z,97467.00
2022-11-28T14:04:23.089Z,97474.56
2022-11-28T14:07:02.482Z,97473.06
2022-11-28T14:09:57.985Z,97472.09
2022-11-28T14:12:57.405Z,97472.56
2022-11-28T14:15:44.880Z,97479.72
2022-11-28T14:21:29.176Z,97475.84
2022-11-28T14:24:27.669Z,97481.44
2022-11-28T14:26:59.981Z,97472.88
2022-11-28T14:29:48.602Z,97470.44
2022-11-28T14:32:34.494Z,97477.75
2022-11-28T14:35:02.062Z,97468.41
2022-11-28T14:37:29.360Z,97471.94
2022-11-28T14:39:56.921Z,97473.94
2022-11-28T14:42:58.134Z,97469.13
2022-11-28T14:45:42.175Z,97475.50
2022-11-28T14:48:15.019Z,97485.09
2022-11-28T14:50:41.654Z,97481.16
2022-11-28T14:53:30.009Z,97485.28
2022-11-28T14:56:10.333Z,97488.22
2022-11-28T14:58:37.625Z,97487.50
2022-11-28T15:01:11.612Z,97489.44
2022-11-28T15:03:47.594Z,97487.81
2022-11-28T15:06:20.837Z,97482.97
2022-11-28T15:08:53.162Z,97484.94
2022-11-28T15:11:34.969Z,97474.13
2022-11-28T15:14:10.560Z,97482.50
2022-11-28T15:16:49.836Z,97473.28
2022-11-28T15:19:19.913Z,97476.78
2022-11-28T15:21:48.021Z,97481.72
2022-11-28T15:24:32.985Z,97479.72
2022-11-28T15:27:24.085Z,97479.34
2022-11-28T15:30:01.497Z,97463.81
2022-11-28T15:32:30.899Z,97473.28
2022-11-28T15:35:07.762Z,97474.84
2022-11-28T15:37:37.585Z,97486.94
2022-11-28T15:40:06.138Z,97491.16
2022-11-28T15:42:35.896Z,97487.28
2022-11-28T15:45:18.527Z,97486.03
2022-11-28T15:47:46.695Z,97486.47
2022-11-28T15:50:13.220Z,97484.13
2022-11-28T15:52:39.979Z,97483.72
2022-11-28T15:55:16.859Z,97481.75
2022-11-28T15:57:43.391Z,97476.66
2022-11-28T16:00:14.872Z,97472.34
2022-11-28T16:02:42.853Z,97473.19
2022-11-28T16:05:21.300Z,97475.63
2022-11-28T16:07:51.122Z,97472.13
2022-11-28T16:10:27.867Z,97472.94
2022-11-28T16:13:03.758Z,97471.63
2022-11-28T16:15:31.576Z,97472.19
2022-11-28T16:17:58.509Z,97474.63
2022-11-28T16:20:28.435Z,97476.22
2022-11-28T16:22:59.757Z,97471.19
2022-11-28T16:25:27.283Z,97474.88
2022-11-28T16:27:57.307Z,97465.41
2022-11-28T16:30:29.942Z,97470.34
2022-11-28T16:32:57.221Z,97475.25
2022-11-28T16:35:38.910Z,97472.25
2022-11-28T16:38:27.026Z,97462.00
2022-11-28T16:41:01.148Z,97474.31
2022-11-28T16:43:41.097Z,97469.94
2022-11-28T16:46:18.320Z,97465.94
2022-11-28T16:48:49.694Z,97475.50
2022-11-28T16:51:22.409Z,97470.38
2022-11-28T16:53:50.297Z,97466.47
2022-11-28T16:56:41.442Z,97463.69
2022-11-28T16:59:07.928Z,97462.13
2022-11-28T17:01:35.693Z,97464.53
2022-11-28T17:04:02.745Z,97462.13
2022-11-28T17:06:36.901Z,97464.53
2022-11-28T17:09:09.003Z,97466.09
2022-11-28T17:11:37.877Z,97466.94
2022-11-28T17:14:10.173Z,97469.72
2022-11-28T17:16:41.481Z,97459.72
2022-11-28T17:19:08.326Z,97473.25
2022-11-28T17:21:39.198Z,97467.69
2022-11-28T17:24:11.939Z,97461.38
2022-11-28T17:26:38.508Z,97463.31
2022-11-28T17:29:05.071Z,97465.81
2022-11-28T17:31:31.673Z,97465.44
2022-11-28T17:33:58.211Z,97479.09
2022-11-28T17:36:24.718Z,97468.72
2022-11-28T17:38:51.399Z,97455.72
2022-11-28T17:41:20.329Z,97465.69
2022-11-28T17:43:46.877Z,97464.88
2022-11-28T17:46:13.394Z,97459.78
2022-11-28T17:48:39.965Z,97458.59
2022-11-28T17:51:06.576Z,97464.88
2022-11-28T17:53:33.175Z,97462.91
2022-11-28T17:56:00.017Z,97468.88
2022-11-28T17:58:27.038Z,97457.00
2022-11-28T18:01:00.174Z,97468.84
2022-11-28T18:03:28.058Z,97464.75
2022-11-28T18:05:54.674Z,97460.78
2022-11-28T18:08:22.251Z,97465.91
2022-11-28T18:10:49.105Z,97471.44
2022-11-28T18:13:17.418Z,97469.00
2022-11-28T18:15:47.163Z,97465.34
2022-11-28T18:18:13.926Z,97455.00
2022-11-28T18:20:40.514Z,97461.25
2022-11-28T18:23:07.101Z,97456.47
2022-11-28T18:25:33.671Z,97446.94
2022-11-28T18:28:00.245Z,97448.97
2022-11-28T18:30:26.817Z,97453.06
2022-11-28T18:32:53.388Z,97451.06
2022-11-28T18:35:20.151Z,97446.31
2022-11-28T18:37:46.744Z,97453.56
2022-11-28T18:40:13.464Z,97452.75
2022-11-28T18:42:40.197Z,97453.25
2022-11-28T18:45:07.417Z,97444.97
2022-11-28T18:47:35.881Z,97445.97
2022-11-28T18:50:02.479Z,97444.75
2022-11-28T18:52:29.018Z,97448.31
2022-11-28T18:54:55.558Z,97447.09
2022-11-28T18:57:22.077Z,97451.06
2022-11-28T18:59:54.681Z,97445.84
2022-11-28T19:02:22.028Z,97448.19
2022-11-28T19:04:48.563Z,97451.72
2022-11-28T19:07:15.123Z,97446.66
2022-11-28T19:09:44.209Z,97442.69
2022-11-28T19:12:11.567Z,97454.56
2022-11-28T19:14:38.507Z,97449.00
2022-11-28T19:17:05.187Z,97458.41
2022-11-28T19:19:31.782Z,97454.78
2022-11-28T19:21:58.266Z,97459.88
2022-11-28T19:24:24.840Z,97459.13
2022-11-28T19:26:51.402Z,97465.91
2022-11-28T19:29:17.924Z,97470.28
2022-11-28T19:31:45.044Z,97467.03
2022-11-28T19:34:14.502Z,97465.34
2022-11-28T19:36:43.498Z,97469.38
2022-11-28T19:39:15.758Z,97462.88
2022-11-28T19:41:42.638Z,97459.25
2022-11-28T19:44:11.253Z,97463.66
2022-11-28T19:46:38.115Z,97462.06
2022-11-28T19:49:05.845Z,97462.88
2022-11-28T19:51:32.515Z,97463.69
2022-11-28T19:54:03.241Z,97471.59
2022-11-28T19:56:31.416Z,97463.63
2022-11-28T19:58:58.980Z,97469.13
2022-11-28T20:01:25.993Z,97465.16
2022-11-28T20:03:53.250Z,97471.41
2022-11-28T20:06:31.165Z,97472.25
2022-11-28T20:09:10.314Z,97462.31
2022-11-28T20:11:38.178Z,97472.56
2022-11-28T20:14:07.731Z,97469.09
2022-11-28T20:16:36.361Z,97467.16
2022-11-28T20:19:03.521Z,97473.16
2022-11-28T20:21:30.890Z,97473.97
2022-11-28T20:23:59.667Z,97471.97
2022-11-28T20:26:27.117Z,97470.81
2022-11-28T20:28:55.680Z,97473.91
2022-11-28T20:31:25.035Z,97478.59
2022-11-28T20:33:52.666Z,97478.66
2022-11-28T20:36:21.866Z,97474.75
2022-11-28T20:38:49.826Z,97477.84
2022-11-28T20:41:18.396Z,97486.56
2022-11-28T20:43:45.304Z,97479.38
2022-11-28T20:46:16.103Z,97484.97
2022-11-28T20:48:43.149Z,97487.28
2022-11-28T20:51:15.246Z,97480.13
2022-11-28T20:53:41.899Z,97476.59
2022-11-28T20:56:17.418Z,97478.06
2022-11-28T20:58:44.876Z,97469.47
2022-11-28T21:01:23.027Z,97463.63
2022-11-28T21:03:50.861Z,97468.81
2022-11-28T21:06:17.556Z,97471.97
2022-11-28T21:08:44.281Z,97476.31
2022-11-28T21:11:30.531Z,97467.59
2022-11-28T21:14:01.144Z,97473.91
2022-11-28T21:16:29.028Z,97472.34
2022-11-28T21:18:56.336Z,97478.75
2022-11-28T21:21:28.271Z,97470.00
2022-11-28T21:24:09.593Z,97477.56
2022-11-28T21:26:41.079Z,97474.78
2022-11-28T21:29:11.958Z,97481.13
2022-11-28T21:31:42.199Z,97477.91
2022-11-28T21:34:14.171Z,97482.69
2022-11-28T21:36:41.770Z,97472.00
2022-11-28T21:39:11.685Z,97473.28
2022-11-28T21:41:38.342Z,97484.59
2022-11-28T21:44:04.911Z,97491.75
2022-11-28T21:46:31.424Z,97489.25
2022-11-28T21:48:58.477Z,97488.88
2022-11-28T21:51:26.066Z,97487.72
2022-11-28T21:53:52.606Z,97481.72
2022-11-28T21:56:20.367Z,97479.38
2022-11-28T21:58:46.938Z,97482.56
2022-11-28T22:01:14.161Z,97472.34
2022-11-28T22:03:41.580Z,97475.53
2022-11-28T22:06:15.450Z,97470.78
2022-11-28T22:08:42.344Z,97474.00
2022-11-28T22:11:11.240Z,97473.19
2022-11-28T22:13:38.562Z,97464.53
2022-11-28T22:16:08.638Z,97470.09
2022-11-28T22:18:35.248Z,97465.44
2022-11-28T22:21:06.512Z,97472.25
2022-11-28T22:23:38.052Z,97463.25
2022-11-28T22:26:06.493Z,97462.44
2022-11-28T22:28:34.048Z,97460.41
2022-11-28T22:31:16.595Z,97458.38
2022-11-28T22:33:44.204Z,97445.75
2022-11-28T22:36:14.113Z,97448.16
2022-11-28T22:38:42.517Z,97450.63
2022-11-28T22:41:16.765Z,97449.81
2022-11-28T22:43:43.813Z,97440.00
2022-11-28T22:46:10.997Z,97438.81
2022-11-28T22:48:39.013Z,97430.09
2022-11-28T22:51:14.429Z,97424.59
2022-11-28T22:53:41.057Z,97432.53
2022-11-28T22:56:09.774Z,97434.09
2022-11-28T22:58:42.244Z,97428.56
2022-11-28T23:01:11.494Z,97420.66
2022-11-28T23:03:38.050Z,97424.69
2022-11-28T23:06:10.473Z,97423.91
2022-11-28T23:08:37.182Z,97421.16
2022-11-28T23:11:09.208Z,97414.41
2022-11-28T23:13:36.922Z,97414.41
2022-11-28T23:16:15.579Z,97420.31
2022-11-28T23:18:45.930Z,97415.56
2022-11-28T23:21:13.290Z,97413.63
2022-11-28T23:23:39.894Z,97411.66
2022-11-28T23:26:09.376Z,97414.88
2022-11-28T23:28:36.834Z,97405.72
2022-11-28T23:31:10.997Z,97409.34
2022-11-28T23:33:38.267Z,97403.41
2022-11-28T23:36:31.147Z,97398.66
2022-11-28T23:39:01.346Z,97412.97
2022-11-28T23:41:29.742Z,97406.22
2022-11-28T23:43:57.076Z,97401.09
2022-11-28T23:46:24.553Z,97400.28
2022-11-28T23:48:51.700Z,97402.72
2022-11-28T23:51:20.292Z,97401.94
2022-11-28T23:53:47.340Z,97405.88
2022-11-28T23:56:26.203Z,97397.19
2022-11-28T23:58:55.945Z,97400.78
